Time;durP1;ratioP1;P1;durP2;ratioP2;P2;SDS_P1;SDS_P2;PMS_P1;PMS_P2;Temp;Humidity;BMP_temperature;BMP_pressure;BME280_temperature;BME280_humidity;BME280_pressure;Samples;Min_cycle;Max_cycle;Signal;HPM_P1;HPM_P2
2024/04/02 00:00:12;;;;;;;0.63;0.60;;;;;;;7.38;100.00;97198.81;5083968;28;20258;-79
2024/04/02 00:02:37;;;;;;;0.50;0.50;;;;;;;7.43;100.00;97201.97;5085069;28;20210;-79
2024/04/02 00:05:05;;;;;;;0.70;0.60;;;;;;;7.49;100.00;97209.41;5084384;28;20704;-79
2024/04/02 00:07:31;;;;;;;0.60;0.60;;;;;;;7.54;100.00;97204.69;5084783;28;20207;-79
2024/04/02 00:09:57;;;;;;;0.60;0.60;;;;;;;7.48;100.00;97210.38;5085373;28;20317;-79
2024/04/02 00:12:23;;;;;;;1.33;0.77;;;;;;;7.46;100.00;97217.50;5084961;28;20597;-79
2024/04/02 00:14:49;;;;;;;0.60;0.60;;;;;;;7.47;100.00;97224.47;5082999;28;20295;-79
2024/04/02 00:17:15;;;;;;;1.63;0.57;;;;;;;7.45;100.00;97231.59;5083769;28;20226;-79
2024/04/02 00:19:41;;;;;;;0.50;0.50;;;;;;;7.47;100.00;97240.25;5084524;28;20290;-81
2024/04/02 00:22:08;;;;;;;0.70;0.60;;;;;;;7.48;100.00;97237.47;5084473;28;20221;-80
2024/04/02 00:24:37;;;;;;;1.17;1.07;;;;;;;7.49;100.00;97238.34;5084085;28;20216;-80
2024/04/02 00:27:03;;;;;;;0.93;0.53;;;;;;;7.50;100.00;97229.50;5085019;28;20540;-79
2024/04/02 00:29:30;;;;;;;2.53;0.63;;;;;;;7.50;100.00;97242.66;5085329;28;20297;-80
2024/04/02 00:31:55;;;;;;;0.67;0.60;;;;;;;7.53;100.00;97231.91;5084923;28;20209;-79
2024/04/02 00:34:22;;;;;;;1.70;0.70;;;;;;;7.53;100.00;97242.44;5085505;28;20245;-80
2024/04/02 00:36:48;;;;;;;3.90;0.53;;;;;;;7.54;100.00;97246.75;5084706;28;20229;-80
2024/04/02 00:39:16;;;;;;;0.53;0.47;;;;;;;7.59;100.00;97245.44;5084662;28;20203;-80
2024/04/02 00:41:41;;;;;;;0.87;0.63;;;;;;;7.60;100.00;97243.69;5084801;28;20207;-79
2024/04/02 00:44:08;;;;;;;0.73;0.57;;;;;;;7.55;100.00;97254.53;5084257;28;20309;-80
2024/04/02 00:46:33;;;;;;;0.57;0.57;;;;;;;7.66;100.00;97254.59;5083164;28;20219;-79
2024/04/02 00:49:00;;;;;;;0.50;0.50;;;;;;;7.56;100.00;97266.72;5084650;28;20234;-80
2024/04/02 00:51:25;;;;;;;1.23;0.73;;;;;;;7.55;100.00;97264.19;5084221;28;20228;-80
2024/04/02 00:53:52;;;;;;;0.83;0.70;;;;;;;7.47;100.00;97266.53;5085020;28;20245;-80
2024/04/02 00:56:19;;;;;;;0.50;0.50;;;;;;;7.43;100.00;97271.16;5084463;28;20239;-80
2024/04/02 00:58:46;;;;;;;0.80;0.60;;;;;;;7.44;100.00;97272.84;5084554;28;20232;-80
2024/04/02 01:01:11;;;;;;;0.73;0.60;;;;;;;7.38;100.00;97277.69;5086656;28;20289;-80
2024/04/02 01:03:38;;;;;;;0.90;0.70;;;;;;;7.29;100.00;97280.97;5087846;28;20219;-81
2024/04/02 01:06:05;;;;;;;1.13;0.90;;;;;;;7.26;100.00;97283.78;5087796;28;20212;-80
2024/04/02 01:08:31;;;;;;;0.63;0.63;;;;;;;7.23;100.00;97278.75;5075665;28;20214;-80
2024/04/02 01:10:57;;;;;;;1.23;0.70;;;;;;;7.18;100.00;97288.75;5081162;28;20264;-80
2024/04/02 01:13:25;;;;;;;0.93;0.80;;;;;;;7.19;100.00;97287.78;5086982;28;20207;-80
2024/04/02 01:15:50;;;;;;;0.80;0.70;;;;;;;7.18;100.00;97285.25;5086959;28;20238;-80
2024/04/02 01:18:17;;;;;;;0.73;0.53;;;;;;;7.18;100.00;97295.78;5087076;28;20272;-80
2024/04/02 01:20:42;;;;;;;0.90;0.63;;;;;;;7.11;100.00;97294.50;5087094;28;20241;-80
2024/04/02 01:23:09;;;;;;;0.50;0.50;;;;;;;7.12;100.00;97293.56;5087818;28;20237;-80
2024/04/02 01:25:36;;;;;;;0.63;0.63;;;;;;;7.20;100.00;97297.34;5088024;28;20212;-80
2024/04/02 01:28:02;;;;;;;0.83;0.80;;;;;;;7.27;100.00;97298.59;5087027;28;20222;-80
2024/04/02 01:30:28;;;;;;;1.33;0.70;;;;;;;7.34;100.00;97297.25;5087699;28;20233;-80
2024/04/02 01:32:54;;;;;;;0.50;0.50;;;;;;;7.42;100.00;97303.63;5088425;28;20224;-81
2024/04/02 01:35:20;;;;;;;1.43;0.70;;;;;;;7.38;100.00;97297.88;5087141;28;20219;-80
2024/04/02 01:37:46;;;;;;;0.60;0.60;;;;;;;7.29;100.00;97300.19;5088305;28;20255;-80
2024/04/02 01:40:12;;;;;;;1.53;0.60;;;;;;;7.24;100.00;97299.66;5087957;28;20230;-80
2024/04/02 01:42:40;;;;;;;0.70;0.70;;;;;;;7.24;100.00;97301.47;5088055;28;20229;-81
2024/04/02 01:45:06;;;;;;;0.60;0.60;;;;;;;7.15;100.00;97302.06;5087386;28;20224;-80
2024/04/02 01:47:32;;;;;;;0.50;0.50;;;;;;;7.08;100.00;97305.25;5088931;28;20206;-80
2024/04/02 01:49:58;;;;;;;0.60;0.60;;;;;;;7.03;100.00;97308.16;5089017;28;20238;-80
2024/04/02 01:52:24;;;;;;;0.60;0.60;;;;;;;7.01;100.00;97312.69;5088333;28;20313;-80
2024/04/02 01:54:50;;;;;;;0.70;0.70;;;;;;;6.94;100.00;97308.81;5088413;28;20214;-80
2024/04/02 01:57:16;;;;;;;0.93;0.80;;;;;;;6.97;100.00;97313.00;5088152;28;20441;-80
2024/04/02 01:59:43;;;;;;;0.70;0.60;;;;;;;6.86;100.00;97316.38;5088340;28;20236;-80
2024/04/02 02:02:10;;;;;;;0.50;0.50;;;;;;;6.88;100.00;97321.50;5089139;28;20210;-80
2024/04/02 02:04:35;;;;;;;0.60;0.60;;;;;;;6.88;100.00;97321.50;5088819;28;20213;-80
2024/04/02 02:07:02;;;;;;;0.53;0.53;;;;;;;6.84;100.00;97334.00;5088092;28;20246;-80
2024/04/02 02:09:27;;;;;;;2.30;0.70;;;;;;;6.78;100.00;97329.16;5087231;28;20253;-80
2024/04/02 02:11:53;;;;;;;0.60;0.60;;;;;;;6.74;100.00;97338.19;5085415;28;20216;-80
2024/04/02 02:14:19;;;;;;;0.90;0.60;;;;;;;6.80;100.00;97340.41;5084132;28;20236;-80
2024/04/02 02:16:49;;;;;;;0.50;0.50;;;;;;;6.91;100.00;97343.13;5081321;28;20316;-80
2024/04/02 02:19:15;;;;;;;1.43;0.60;;;;;;;6.97;100.00;97339.28;5081589;28;20292;-80
2024/04/02 02:21:41;;;;;;;1.47;0.60;;;;;;;7.07;100.00;97343.81;5082079;28;20256;-79
2024/04/02 02:24:07;;;;;;;2.00;0.80;;;;;;;7.18;100.00;97346.56;5081648;28;20581;-80
2024/04/02 02:26:35;;;;;;;0.80;0.50;;;;;;;7.38;100.00;97346.03;5080977;28;20235;-79
2024/04/02 02:29:00;;;;;;;0.60;0.50;;;;;;;7.49;100.00;97338.25;5080841;28;20273;-80
2024/04/02 02:31:27;;;;;;;0.60;0.50;;;;;;;7.56;100.00;97342.97;5080831;28;20230;-80
2024/04/02 02:33:54;;;;;;;0.53;0.43;;;;;;;7.58;100.00;97345.47;5080621;28;20215;-80
2024/04/02 02:36:20;;;;;;;0.40;0.40;;;;;;;7.60;100.00;97335.72;5080857;28;20263;-80
2024/04/02 02:38:46;;;;;;;0.50;0.50;;;;;;;7.61;100.00;97340.00;5080911;28;20574;-81
2024/04/02 02:41:12;;;;;;;0.60;0.60;;;;;;;7.56;100.00;97350.00;5081722;28;20297;-79
2024/04/02 02:43:38;;;;;;;0.50;0.50;;;;;;;7.51;100.00;97342.44;5078456;28;20214;-78
2024/04/02 02:46:05;;;;;;;1.10;0.50;;;;;;;7.48;100.00;97357.59;5075768;28;20631;-78
2024/04/02 02:48:30;;;;;;;1.07;0.57;;;;;;;7.40;100.00;97355.47;5075790;28;20589;-78
2024/04/02 02:50:58;;;;;;;0.43;0.43;;;;;;;7.30;100.00;97364.13;5075854;28;20232;-78
2024/04/02 02:53:23;;;;;;;1.47;0.60;;;;;;;7.21;100.00;97364.72;5076101;28;20224;-79
2024/04/02 02:55:54;;;;;;;0.60;0.60;;;;;;;7.18;100.00;97365.75;5076319;28;20292;-79
2024/04/02 02:58:20;;;;;;;0.50;0.50;;;;;;;7.06;100.00;97371.03;5076014;28;20216;-79
2024/04/02 03:00:46;;;;;;;0.60;0.60;;;;;;;6.99;100.00;97368.91;5075524;28;20367;-79
2024/04/02 03:03:12;;;;;;;1.40;0.50;;;;;;;7.01;100.00;97370.50;5075490;28;20567;-79
2024/04/02 03:05:38;;;;;;;0.70;0.60;;;;;;;7.03;100.00;97367.75;5076621;28;20213;-79
2024/04/02 03:08:06;;;;;;;0.50;0.50;;;;;;;7.03;100.00;97378.28;5078590;28;20205;-79
2024/04/02 03:10:32;;;;;;;0.60;0.60;;;;;;;6.93;100.00;97379.81;5081141;28;20774;-79
2024/04/02 03:12:58;;;;;;;1.73;0.87;;;;;;;6.91;100.00;97387.78;5083526;28;20209;-80
2024/04/02 03:15:24;;;;;;;0.83;0.60;;;;;;;6.98;100.00;97383.84;5084371;28;20299;-80
2024/04/02 03:17:50;;;;;;;0.87;0.70;;;;;;;6.90;100.00;97390.53;5084044;28;20242;-80
2024/04/02 03:20:17;;;;;;;0.80;0.80;;;;;;;6.91;100.00;97393.03;5082933;28;20766;-80
2024/04/02 03:22:42;;;;;;;0.60;0.60;;;;;;;6.80;100.00;97395.56;5082504;28;20220;-80
2024/04/02 03:25:10;;;;;;;0.70;0.70;;;;;;;6.77;100.00;97393.13;5085450;28;20205;-80
2024/04/02 03:27:36;;;;;;;0.70;0.70;;;;;;;6.78;100.00;97402.69;5083592;28;20205;-80
2024/04/02 03:30:04;;;;;;;0.70;0.70;;;;;;;6.73;100.00;97399.50;5084047;28;20254;-79
2024/04/02 03:32:29;;;;;;;0.63;0.63;;;;;;;6.70;100.00;97410.22;5085204;28;20646;-80
2024/04/02 03:34:56;;;;;;;1.30;0.60;;;;;;;6.61;100.00;97410.84;5084535;28;20204;-80
2024/04/02 03:37:22;;;;;;;1.77;0.90;;;;;;;6.66;100.00;97413.16;5082551;28;20227;-80
2024/04/02 03:39:49;;;;;;;0.57;0.57;;;;;;;6.61;100.00;97408.22;5081672;28;20230;-80
2024/04/02 03:42:16;;;;;;;0.60;0.60;;;;;;;6.59;100.00;97396.94;5084476;28;20255;-79
2024/04/02 03:44:43;;;;;;;0.97;0.77;;;;;;;6.58;100.00;97405.78;5083104;28;20214;-79
2024/04/02 03:47:09;;;;;;;0.60;0.50;;;;;;;6.61;100.00;97407.34;5082390;28;20210;-79
2024/04/02 03:49:35;;;;;;;1.13;0.80;;;;;;;6.55;100.00;97405.13;5082314;28;21048;-79
2024/04/02 03:52:03;;;;;;;1.00;0.60;;;;;;;6.50;100.00;97407.22;5082757;28;20209;-79
2024/04/02 03:54:28;;;;;;;1.87;0.80;;;;;;;6.42;100.00;97410.31;5083291;28;20220;-79
2024/04/02 03:56:55;;;;;;;0.80;0.70;;;;;;;6.39;100.00;97407.91;5082072;28;20236;-79
2024/04/02 03:59:21;;;;;;;0.70;0.70;;;;;;;6.37;100.00;97416.81;5081445;28;20206;-80
2024/04/02 04:01:48;;;;;;;0.63;0.50;;;;;;;6.34;100.00;97422.28;5082148;28;20679;-79
2024/04/02 04:04:13;;;;;;;0.87;0.60;;;;;;;6.38;100.00;97419.34;5081619;28;20307;-79
2024/04/02 04:06:40;;;;;;;1.30;0.60;;;;;;;6.37;100.00;97422.06;5082724;28;20302;-79
2024/04/02 04:09:07;;;;;;;0.73;0.70;;;;;;;6.33;100.00;97424.03;5078948;28;20213;-78
2024/04/02 04:11:34;;;;;;;1.23;0.60;;;;;;;6.44;100.00;97424.19;5078696;28;20657;-79
2024/04/02 04:14:01;;;;;;;1.47;1.00;;;;;;;6.49;100.00;97424.75;5077952;28;20215;-79
2024/04/02 04:16:29;;;;;;;0.63;0.63;;;;;;;6.49;100.00;97429.16;5060889;28;20781;-79
2024/04/02 04:18:55;;;;;;;1.13;1.00;;;;;;;6.51;100.00;97424.63;5078531;28;20219;-79
2024/04/02 04:21:21;;;;;;;1.10;0.90;;;;;;;6.48;100.00;97425.66;5078627;28;20611;-79
2024/04/02 04:23:46;;;;;;;0.70;0.70;;;;;;;6.50;100.00;97434.31;5079128;28;20562;-79
2024/04/02 04:26:14;;;;;;;0.87;0.70;;;;;;;6.50;100.00;97438.72;5079034;28;20216;-79
2024/04/02 04:28:40;;;;;;;0.60;0.60;;;;;;;6.45;100.00;97436.38;5079354;28;20285;-80
2024/04/02 04:31:06;;;;;;;0.57;0.57;;;;;;;6.46;100.00;97442.44;5078548;28;20226;-79
2024/04/02 04:33:33;;;;;;;0.90;0.77;;;;;;;6.47;100.00;97449.41;5079360;28;20304;-79
2024/04/02 04:35:59;;;;;;;0.60;0.60;;;;;;;6.51;100.00;97443.88;5078761;28;20211;-79
2024/04/02 04:38:28;;;;;;;1.47;0.83;;;;;;;6.49;100.00;97448.38;5078793;28;20233;-79
2024/04/02 04:40:54;;;;;;;1.87;0.80;;;;;;;6.47;100.00;97454.66;5077942;28;20228;-79
2024/04/02 04:43:20;;;;;;;0.70;0.70;;;;;;;6.44;100.00;97453.06;5078624;28;20572;-79
2024/04/02 04:45:51;;;;;;;0.60;0.60;;;;;;;6.39;100.00;97457.75;5078842;28;20213;-79
2024/04/02 04:48:16;;;;;;;0.60;0.60;;;;;;;6.33;100.00;97459.91;5079715;28;20202;-81
2024/04/02 04:50:55;;;;;;;0.97;0.87;;;;;;;6.41;100.00;97466.38;5079285;28;20232;-79
2024/04/02 04:53:20;;;;;;;0.53;0.53;;;;;;;6.48;100.00;97462.41;5079186;28;20190;-79
2024/04/02 04:55:49;;;;;;;1.53;0.60;;;;;;;6.47;100.00;97455.50;5078936;28;20223;-79
2024/04/02 04:58:15;;;;;;;0.60;0.60;;;;;;;6.51;100.00;97458.75;5079196;28;20225;-79
2024/04/02 05:00:41;;;;;;;1.07;0.77;;;;;;;6.61;100.00;97467.75;5079476;28;20265;-79
2024/04/02 05:03:07;;;;;;;0.90;0.80;;;;;;;6.62;100.00;97477.31;5079130;28;20212;-79
2024/04/02 05:05:34;;;;;;;0.83;0.60;;;;;;;6.61;100.00;97468.59;5079086;28;20587;-79
2024/04/02 05:08:22;;;;;;;1.00;0.60;;;;;;;6.72;100.00;97476.59;5079674;28;20292;-79
2024/04/02 05:10:50;;;;;;;0.50;0.50;;;;;;;6.72;100.00;97473.97;5079170;28;20225;-79
2024/04/02 05:13:16;;;;;;;0.53;0.53;;;;;;;6.76;100.00;97485.13;5078236;28;20220;-79
2024/04/02 05:15:43;;;;;;;0.50;0.50;;;;;;;6.80;100.00;97484.84;5079542;28;20237;-79
2024/04/02 05:18:08;;;;;;;1.50;0.83;;;;;;;6.88;100.00;97487.81;5079098;28;20230;-79
2024/04/02 05:20:35;;;;;;;0.67;0.53;;;;;;;6.85;100.00;97488.00;5078577;28;20234;-79
2024/04/02 05:23:01;;;;;;;0.57;0.50;;;;;;;6.93;100.00;97493.63;5078155;28;20615;-79
2024/04/02 05:25:29;;;;;;;0.80;0.43;;;;;;;7.02;100.00;97492.19;5078962;28;20213;-79
2024/04/02 05:27:54;;;;;;;0.63;0.60;;;;;;;7.06;100.00;97491.88;5080027;28;20212;-80
2024/04/02 05:30:21;;;;;;;0.60;0.60;;;;;;;7.12;100.00;97490.63;5080360;28;20228;-79
2024/04/02 05:32:47;;;;;;;1.90;0.70;;;;;;;7.14;100.00;97489.59;5079731;28;20222;-79
2024/04/02 05:35:13;;;;;;;0.47;0.40;;;;;;;7.16;100.00;97492.97;5079545;28;20314;-79
2024/04/02 05:37:39;;;;;;;0.40;0.40;;;;;;;7.15;100.00;97509.66;5078762;28;20261;-79
2024/04/02 05:40:07;;;;;;;2.87;0.70;;;;;;;7.20;100.00;97504.94;5079135;28;20693;-79
2024/04/02 05:42:34;;;;;;;0.70;0.70;;;;;;;7.24;100.00;97495.94;5080505;28;20225;-79
2024/04/02 05:45:01;;;;;;;0.83;0.50;;;;;;;7.32;100.00;97494.47;5060516;28;20320;-79
2024/04/02 05:47:27;;;;;;;0.73;0.57;;;;;;;7.44;100.00;97495.44;5078353;28;20215;-79
2024/04/02 05:49:53;;;;;;;0.93;0.50;;;;;;;7.44;100.00;97498.94;5079966;28;20298;-79
2024/04/02 05:52:19;;;;;;;0.40;0.40;;;;;;;7.50;100.00;97501.16;5079276;28;20207;-79
2024/04/02 05:54:46;;;;;;;0.63;0.40;;;;;;;7.49;100.00;97506.50;5081600;28;20280;-80
2024/04/02 05:57:15;;;;;;;0.47;0.47;;;;;;;7.47;100.00;97513.66;5083348;28;20225;-80
2024/04/02 05:59:43;;;;;;;0.60;0.50;;;;;;;7.52;100.00;97511.53;5082655;28;20244;-80
2024/04/02 06:02:09;;;;;;;0.67;0.50;;;;;;;7.58;100.00;97516.38;5083437;28;20249;-80
2024/04/02 06:04:35;;;;;;;0.40;0.40;;;;;;;7.65;100.00;97513.25;5083283;28;20627;-80
2024/04/02 06:07:01;;;;;;;2.40;0.57;;;;;;;7.77;100.00;97524.75;5066053;28;20650;-80
2024/04/02 06:09:27;;;;;;;0.37;0.37;;;;;;;8.02;100.00;97527.41;5082719;28;20251;-80
2024/04/02 06:11:53;;;;;;;0.40;0.40;;;;;;;8.30;100.00;97519.28;5083329;28;20210;-80
2024/04/02 06:14:19;;;;;;;0.50;0.43;;;;;;;8.56;100.00;97519.16;5082408;28;20649;-80
2024/04/02 06:16:46;;;;;;;0.40;0.40;;;;;;;8.73;100.00;97515.31;5082777;28;20230;-79
2024/04/02 06:19:13;;;;;;;2.20;0.70;;;;;;;8.77;100.00;97520.28;5082255;28;20567;-80
2024/04/02 06:21:38;;;;;;;0.70;0.50;;;;;;;8.89;100.00;97521.16;5081083;28;20227;-80
2024/04/02 06:24:05;;;;;;;0.50;0.50;;;;;;;8.95;100.00;97526.84;5081098;28;20244;-80
2024/04/02 06:26:31;;;;;;;0.50;0.40;;;;;;;9.07;100.00;97518.03;5081323;28;20210;-80
2024/04/02 06:28:57;;;;;;;1.23;0.50;;;;;;;9.21;100.00;97527.56;5081207;28;20280;-80
2024/04/02 06:31:23;;;;;;;0.93;0.40;;;;;;;9.26;99.37;97522.81;5079828;28;20665;-80
2024/04/02 06:33:51;;;;;;;0.70;0.40;;;;;;;9.28;100.00;97539.34;5081096;28;20252;-80
2024/04/02 06:36:16;;;;;;;0.57;0.40;;;;;;;9.38;100.00;97540.38;5081490;28;20214;-79
2024/04/02 06:38:43;;;;;;;1.27;0.60;;;;;;;9.45;100.00;97536.31;5080619;28;20720;-80
2024/04/02 06:41:09;;;;;;;0.60;0.57;;;;;;;9.34;100.00;97544.19;5081004;28;20230;-80
2024/04/02 06:43:35;;;;;;;0.97;0.60;;;;;;;9.37;100.00;97555.34;5080782;28;20726;-80
2024/04/02 06:46:01;;;;;;;0.40;0.40;;;;;;;9.47;100.00;97558.13;5081419;28;20213;-79
2024/04/02 06:48:28;;;;;;;1.70;0.40;;;;;;;9.42;100.00;97562.94;5081204;28;20284;-79
2024/04/02 06:50:59;;;;;;;3.47;0.50;;;;;;;9.45;100.00;97558.28;5078602;28;20266;-79
2024/04/02 06:53:26;;;;;;;0.37;0.37;;;;;;;9.47;100.00;97566.06;5075403;28;20221;-80
2024/04/02 06:55:51;;;;;;;0.40;0.40;;;;;;;9.47;100.00;97566.06;5075354;28;20236;-83
2024/04/02 06:58:18;;;;;;;1.37;0.60;;;;;;;9.63;100.00;97571.88;5074999;28;20574;-79
2024/04/02 07:00:44;;;;;;;0.57;0.43;;;;;;;9.64;100.00;97558.59;5075083;28;20242;-77
2024/04/02 07:03:15;;;;;;;0.30;0.30;;;;;;;9.71;100.00;97570.38;5073786;28;20591;-77
2024/04/02 07:05:41;;;;;;;0.63;0.50;;;;;;;9.73;100.00;97565.81;5072296;28;20246;-77
2024/04/02 07:08:09;;;;;;;1.23;0.43;;;;;;;9.72;100.00;97566.75;5074409;28;20206;-79
2024/04/02 07:10:35;;;;;;;0.50;0.50;;;;;;;9.74;100.00;97575.41;5076944;28;20234;-79
2024/04/02 07:13:02;;;;;;;0.80;0.40;;;;;;;9.77;100.00;97574.34;5077527;28;20255;-79
2024/04/02 07:15:28;;;;;;;0.43;0.30;;;;;;;9.71;100.00;97559.81;5076213;28;20210;-79
2024/04/02 07:17:55;;;;;;;0.30;0.30;;;;;;;9.60;100.00;97566.84;5077074;28;20282;-80
2024/04/02 07:20:21;;;;;;;0.67;0.30;;;;;;;9.66;100.00;97569.03;5269676;22;20224;-79
2024/04/02 07:22:48;;;;;;;0.50;0.50;;;;;;;9.69;100.00;97576.72;5097395;28;20206;-79
2024/04/02 07:25:15;;;;;;;1.07;0.50;;;;;;;9.68;99.45;97561.84;5099484;28;20206;-79
2024/04/02 07:27:41;;;;;;;1.43;0.60;;;;;;;9.66;99.59;97566.41;5099075;28;20226;-79
2024/04/02 07:30:08;;;;;;;2.97;0.40;;;;;;;9.73;100.00;97573.72;5090487;28;20595;-79
2024/04/02 07:32:35;;;;;;;0.77;0.50;;;;;;;9.80;100.00;97574.94;5061852;28;20207;-79
2024/04/02 07:35:01;;;;;;;1.90;0.50;;;;;;;9.89;98.94;97570.78;5077406;28;20203;-78
2024/04/02 07:37:29;;;;;;;0.50;0.40;;;;;;;10.00;98.60;97582.22;5078155;28;20226;-79
2024/04/02 07:39:55;;;;;;;1.00;0.60;;;;;;;10.14;100.00;97583.84;5078894;28;20242;-78
2024/04/02 07:42:23;;;;;;;4.20;0.60;;;;;;;10.32;99.52;97583.28;5077476;28;20559;-83
2024/04/02 07:44:48;;;;;;;2.80;0.70;;;;;;;10.44;95.11;97560.34;5079593;28;20212;-84
2024/04/02 07:47:15;;;;;;;0.87;0.53;;;;;;;10.67;93.61;97551.47;5078394;28;20299;-80
2024/04/02 07:49:40;;;;;;;1.93;1.00;;;;;;;10.83;91.75;97552.78;5074708;28;20267;-79
2024/04/02 07:52:07;;;;;;;2.17;0.70;;;;;;;11.01;87.80;97534.63;5075148;28;20671;-85
2024/04/02 07:54:32;;;;;;;4.27;0.60;;;;;;;11.04;88.17;97555.53;5075252;28;20236;-83
2024/04/02 07:56:59;;;;;;;3.73;0.87;;;;;;;11.18;86.87;97544.69;5078318;28;20651;-83
2024/04/02 07:59:26;;;;;;;1.63;0.67;;;;;;;11.43;86.47;97552.31;5077617;28;20245;-83
2024/04/02 08:01:52;;;;;;;1.90;0.70;;;;;;;11.63;82.21;97533.03;5077545;28;20214;-84
2024/04/02 08:04:18;;;;;;;2.37;0.70;;;;;;;11.64;81.55;97540.00;5077113;28;20219;-81
2024/04/02 08:06:45;;;;;;;1.90;0.90;;;;;;;11.53;78.19;97538.22;5078316;28;20199;-82
2024/04/02 08:09:11;;;;;;;2.67;0.70;;;;;;;11.69;78.75;97556.34;5079001;28;20211;-81
2024/04/02 08:11:38;;;;;;;1.73;0.70;;;;;;;11.62;78.08;97557.81;5078960;28;20233;-81
2024/04/02 08:14:04;;;;;;;2.57;0.70;;;;;;;11.65;79.09;97568.13;5078252;28;20221;-81
2024/04/02 08:16:33;;;;;;;2.40;0.70;;;;;;;11.49;79.09;97573.81;5077715;28;20752;-81
2024/04/02 08:18:58;;;;;;;2.90;0.80;;;;;;;11.42;78.50;97575.28;5078447;28;20235;-81
2024/04/02 08:21:25;;;;;;;1.90;0.60;;;;;;;11.40;79.59;97584.31;5091979;28;20306;-81
2024/04/02 08:23:51;;;;;;;2.57;0.93;;;;;;;11.34;77.92;97566.28;5094540;28;20673;-81
2024/04/02 08:26:19;;;;;;;4.03;0.70;;;;;;;11.32;77.60;97574.34;5093327;28;20200;-81
2024/04/02 08:28:44;;;;;;;1.17;0.60;;;;;;;11.38;77.78;97581.78;5087068;28;20219;-82
2024/04/02 08:31:11;;;;;;;3.43;0.80;;;;;;;11.54;80.64;97608.69;5086253;28;20226;-82
2024/04/02 08:33:38;;;;;;;1.80;0.90;;;;;;;11.69;79.07;97610.09;5084114;28;20223;-82
2024/04/02 08:36:05;;;;;;;2.40;0.63;;;;;;;11.62;75.52;97577.16;5068166;28;20213;-81
2024/04/02 08:38:30;;;;;;;2.37;0.80;;;;;;;11.41;75.61;97580.69;5083946;28;20234;-81
2024/04/02 08:41:03;;;;;;;2.83;0.63;;;;;;;11.33;75.28;97572.53;5084113;28;20691;-82
2024/04/02 08:43:30;;;;;;;1.67;0.70;;;;;;;11.29;76.51;97592.25;5084602;28;20218;-82
2024/04/02 08:45:57;;;;;;;1.70;0.60;;;;;;;11.34;77.16;97603.31;5084493;28;20340;-82
2024/04/02 08:48:24;;;;;;;3.10;0.90;;;;;;;11.37;76.12;97595.16;5083592;28;20225;-81
2024/04/02 08:50:55;;;;;;;3.20;0.50;;;;;;;11.74;76.18;97593.88;5082026;28;20245;-82
2024/04/02 08:53:21;;;;;;;1.67;0.60;;;;;;;12.02;74.37;97590.59;5083815;28;20230;-82
2024/04/02 08:55:48;;;;;;;3.43;0.60;;;;;;;12.04;74.37;97589.50;5080507;28;20269;-82
2024/04/02 08:58:14;;;;;;;0.83;0.60;;;;;;;12.07;72.39;97586.63;5079171;28;20602;-81
2024/04/02 09:00:41;;;;;;;2.43;1.27;;;;;;;12.20;74.45;97612.91;5077889;28;20231;-83
2024/04/02 09:03:07;;;;;;;3.40;0.93;;;;;;;12.28;73.58;97621.06;5077753;28;20203;-83
2024/04/02 09:05:33;;;;;;;1.77;0.50;;;;;;;12.28;73.82;97629.03;5078004;28;20207;-83
2024/04/02 09:08:05;;;;;;;0.70;0.50;;;;;;;12.28;73.81;97629.03;5077257;28;20285;-83
2024/04/02 09:10:31;;;;;;;2.07;0.67;;;;;;;12.20;75.67;97650.84;5077121;28;20234;-82
2024/04/02 09:12:57;;;;;;;1.83;0.40;;;;;;;12.08;73.37;97619.22;5077920;28;20300;-80
2024/04/02 09:15:24;;;;;;;2.47;0.80;;;;;;;11.79;73.57;97628.75;5078923;28;20306;-80
2024/04/02 09:17:50;;;;;;;2.93;1.00;;;;;;;11.64;74.42;97636.13;5079754;28;20234;-80
2024/04/02 09:20:16;;;;;;;1.43;0.60;;;;;;;11.72;74.06;97622.25;5077995;28;20235;-81
2024/04/02 09:22:42;;;;;;;1.33;0.67;;;;;;;11.60;72.00;97612.66;5078303;28;20219;-80
2024/04/02 09:25:10;;;;;;;1.63;0.57;;;;;;;11.69;73.41;97622.53;5078140;28;20225;-79
2024/04/02 09:27:36;;;;;;;1.17;0.70;;;;;;;11.81;72.85;97605.63;5078321;28;20212;-80
2024/04/02 09:30:03;;;;;;;1.93;0.60;;;;;;;11.94;71.04;97591.25;5077657;28;20862;-80
2024/04/02 09:32:29;;;;;;;4.63;1.00;;;;;;;12.04;71.14;97608.03;5079040;28;20208;-79
2024/04/02 09:34:57;;;;;;;3.47;0.70;;;;;;;12.13;68.35;97575.50;5078164;28;20217;-79
2024/04/02 09:37:31;;;;;;;2.93;0.80;;;;;;;12.35;69.17;97590.44;5076141;28;20329;-81
2024/04/02 09:40:00;;;;;;;3.33;0.60;;;;;;;12.50;66.55;97562.59;5078191;28;20802;-84
2024/04/02 09:42:28;;;;;;;3.30;0.70;;;;;;;12.50;64.27;97530.81;5076394;28;20218;-79
2024/04/02 09:44:56;;;;;;;1.83;0.77;;;;;;;12.57;64.25;97553.16;5076269;28;20222;-82
2024/04/02 09:47:22;;;;;;;2.80;0.80;;;;;;;12.49;63.48;97539.72;5075268;28;20207;-81
2024/04/02 09:49:52;;;;;;;1.63;0.70;;;;;;;12.38;63.60;97542.47;5073960;28;20231;-81
2024/04/02 09:52:17;;;;;;;1.87;0.67;;;;;;;12.46;63.17;97547.97;5074882;28;20219;-81
2024/04/02 09:54:48;;;;;;;3.97;0.80;;;;;;;12.60;63.93;97550.25;5075244;28;20207;-81
2024/04/02 09:57:14;;;;;;;1.33;0.90;;;;;;;12.44;62.76;97547.22;5081606;28;20285;-78
2024/04/02 09:59:42;;;;;;;2.13;0.80;;;;;;;12.54;63.87;97564.84;5078477;28;20313;-81
2024/04/02 10:02:14;;;;;;;2.67;0.80;;;;;;;12.77;65.92;97592.88;5074981;28;20628;-80
2024/04/02 10:04:41;;;;;;;4.80;0.87;;;;;;;12.69;62.79;97552.94;5077053;28;20210;-81
2024/04/02 10:07:18;;;;;;;2.40;0.90;;;;;;;12.63;61.74;97534.06;5079333;28;20207;-81
2024/04/02 10:09:45;;;;;;;3.30;0.90;;;;;;;12.55;62.17;97539.19;5079458;28;20261;-80
2024/04/02 10:12:11;;;;;;;1.73;0.60;;;;;;;12.49;63.53;97566.22;5079205;28;20214;-81
2024/04/02 10:14:38;;;;;;;1.67;0.73;;;;;;;12.61;62.47;97557.22;5080829;28;20628;-80
2024/04/02 10:17:14;;;;;;;1.80;0.80;;;;;;;12.67;59.63;97501.03;5079929;28;20213;-81
2024/04/02 10:19:44;;;;;;;1.40;0.80;;;;;;;12.65;60.50;97530.31;5076382;28;20236;-82
2024/04/02 10:22:09;;;;;;;1.87;0.60;;;;;;;12.57;60.40;97534.59;5078443;28;20213;-82
2024/04/02 10:24:36;;;;;;;0.90;0.47;;;;;;;12.54;60.59;97532.22;5077724;28;20270;-80
2024/04/02 10:27:03;;;;;;;3.60;0.70;;;;;;;12.55;60.54;97539.19;5080284;28;20274;-81
2024/04/02 10:29:31;;;;;;;1.93;0.87;;;;;;;12.61;61.44;97543.97;5080531;28;20218;-81
2024/04/02 10:31:57;;;;;;;2.60;0.80;;;;;;;12.78;62.12;97552.13;5081019;28;20303;-81
2024/04/02 10:34:25;;;;;;;2.83;0.70;;;;;;;12.95;59.26;97524.16;5082745;28;20734;-81
2024/04/02 10:36:51;;;;;;;2.80;0.80;;;;;;;13.12;58.38;97507.59;5080214;28;20203;-80
2024/04/02 10:39:18;;;;;;;0.57;0.57;;;;;;;13.10;57.88;97505.09;5081439;28;20241;-81
2024/04/02 10:41:45;;;;;;;1.07;0.70;;;;;;;12.97;56.60;97475.31;5082120;28;20282;-81
2024/04/02 10:44:12;;;;;;;2.80;0.90;;;;;;;13.04;58.68;97510.09;5081589;28;20211;-81
2024/04/02 10:46:39;;;;;;;2.07;0.50;;;;;;;13.10;55.86;97483.88;5082414;28;20528;-79
2024/04/02 10:49:06;;;;;;;1.40;0.80;;;;;;;13.23;56.83;97515.44;5075012;28;20224;-79
2024/04/02 10:51:33;;;;;;;1.60;0.50;;;;;;;13.39;55.43;97505.97;5073832;28;20212;-80
2024/04/02 10:54:01;;;;;;;1.30;0.70;;;;;;;13.19;54.07;97519.34;5085080;28;20211;-77
2024/04/02 10:56:27;;;;;;;3.33;0.70;;;;;;;13.33;55.62;97530.41;5087165;28;20209;-80
2024/04/02 10:58:55;;;;;;;1.53;0.50;;;;;;;13.64;55.41;97544.41;5087530;28;20226;-79
2024/04/02 11:01:21;;;;;;;2.37;0.80;;;;;;;13.88;55.52;97544.84;5081549;28;20223;-79
2024/04/02 11:03:50;;;;;;;1.73;0.73;;;;;;;13.99;54.40;97518.13;5078465;28;20215;-80
2024/04/02 11:06:16;;;;;;;2.37;0.60;;;;;;;14.09;54.15;97516.28;5078601;28;20208;-79
2024/04/02 11:08:48;;;;;;;2.23;1.00;;;;;;;13.82;54.25;97519.66;5080058;28;20207;-80
2024/04/02 11:11:18;;;;;;;2.77;0.60;;;;;;;13.59;55.50;97538.69;5079409;28;20639;-80
2024/04/02 11:13:44;;;;;;;1.60;0.80;;;;;;;13.53;55.41;97545.41;5080195;28;20210;-82
2024/04/02 11:16:10;;;;;;;3.07;0.63;;;;;;;13.67;54.90;97531.69;5077548;28;20228;-80
2024/04/02 11:18:38;;;;;;;1.83;0.87;;;;;;;14.13;56.33;97561.03;5076576;28;20228;-82
2024/04/02 11:21:04;;;;;;;0.97;0.60;;;;;;;14.34;55.98;97543.13;5077534;28;20694;-82
2024/04/02 11:26:16;;;;;;;2.23;0.50;;;;;;;14.70;56.25;97552.13;5056773;28;20209;-82
2024/04/02 11:28:43;;;;;;;2.23;0.60;;;;;;;14.51;55.49;97546.88;5078491;28;20216;-81
2024/04/02 11:31:10;;;;;;;0.90;0.50;;;;;;;14.64;56.49;97563.34;5080694;28;20242;-81
2024/04/02 11:33:37;;;;;;;1.07;0.60;;;;;;;14.39;57.07;97577.25;5085489;28;20210;-82